ACA764 CYYZ-KBOS
Flight info
| Callsign | ACA764 |
|---|---|
| Flight time | 1h 11m |
| Altitude | 37000 |
| Route | KEPTA3 BMPAH DCT AEVON DCT HANKK DCT PONCT JFUND2 |
| Aircraft | A320/M-SDE3FGHIRWY/LB1 |
Departure
| Time | 2026-05-04 01:11 |
|---|---|
| Airport | Toronto Pearson International Airport (CYYZ) |
Arrival
| Time | 2026-05-04 02:22 |
|---|---|
| Airport | Boston Logan International Airport (KBOS) |
| Time | Latitude | Longitude | Altitude | Speed | Heading |
|---|---|---|---|---|---|
| 2026-05-04 00:32 | 43.67847 | -79.61240 | 580 ft | 0 kts | 91° |
| 2026-05-04 00:56 | 43.67847 | -79.61252 | 561 ft | 3 kts | 92° |
| 2026-05-04 00:57 | 43.67848 | -79.61281 | 564 ft | 3 kts | 96° |
| 2026-05-04 00:57 | 43.67851 | -79.61310 | 569 ft | 3 kts | 101° |
| 2026-05-04 00:57 | 43.67856 | -79.61337 | 570 ft | 3 kts | 112° |
| 2026-05-04 00:57 | 43.67865 | -79.61361 | 570 ft | 3 kts | 142° |
| 2026-05-04 00:58 | 43.67878 | -79.61369 | 569 ft | 1 kts | 189° |
| 2026-05-04 00:58 | 43.67882 | -79.61368 | 567 ft | 0 kts | 189° |
| 2026-05-04 01:02 | 43.67880 | -79.61368 | 561 ft | 2 kts | 189° |
| 2026-05-04 01:03 | 43.67848 | -79.61378 | 567 ft | 6 kts | 199° |
| 2026-05-04 01:03 | 43.67813 | -79.61419 | 561 ft | 7 kts | 227° |
| 2026-05-04 01:03 | 43.67774 | -79.61476 | 563 ft | 9 kts | 227° |
| 2026-05-04 01:03 | 43.67727 | -79.61545 | 563 ft | 11 kts | 226° |
| 2026-05-04 01:04 | 43.67676 | -79.61619 | 569 ft | 8 kts | 226° |
| 2026-05-04 01:04 | 43.67636 | -79.61682 | 568 ft | 9 kts | 244° |
| 2026-05-04 01:04 | 43.67657 | -79.61755 | 566 ft | 9 kts | 315° |
| 2026-05-04 01:04 | 43.67697 | -79.61808 | 566 ft | 7 kts | 316° |
| 2026-05-04 01:05 | 43.67736 | -79.61858 | 563 ft | 11 kts | 316° |
| 2026-05-04 01:05 | 43.67814 | -79.61960 | 563 ft | 17 kts | 317° |
| 2026-05-04 01:05 | 43.67908 | -79.62063 | 566 ft | 18 kts | 332° |
| 2026-05-04 01:05 | 43.68016 | -79.62157 | 562 ft | 19 kts | 315° |
| 2026-05-04 01:06 | 43.68112 | -79.62284 | 562 ft | 19 kts | 316° |
| 2026-05-04 01:06 | 43.68203 | -79.62401 | 562 ft | 18 kts | 317° |
| 2026-05-04 01:06 | 43.68290 | -79.62504 | 562 ft | 16 kts | 320° |
| 2026-05-04 01:06 | 43.68372 | -79.62608 | 562 ft | 17 kts | 316° |
| 2026-05-04 01:07 | 43.68460 | -79.62724 | 568 ft | 19 kts | 316° |
| 2026-05-04 01:07 | 43.68558 | -79.62853 | 564 ft | 20 kts | 317° |
| 2026-05-04 01:07 | 43.68662 | -79.62988 | 561 ft | 20 kts | 316° |
| 2026-05-04 01:07 | 43.68758 | -79.63113 | 562 ft | 19 kts | 317° |
| 2026-05-04 01:08 | 43.68857 | -79.63241 | 562 ft | 20 kts | 316° |
| 2026-05-04 01:08 | 43.68957 | -79.63373 | 564 ft | 18 kts | 317° |
| 2026-05-04 01:08 | 43.69036 | -79.63474 | 568 ft | 13 kts | 316° |
| 2026-05-04 01:08 | 43.69081 | -79.63528 | 574 ft | 7 kts | 330° |
| 2026-05-04 01:09 | 43.69116 | -79.63525 | 565 ft | 4 kts | 25° |
| 2026-05-04 01:09 | 43.69159 | -79.63471 | 569 ft | 10 kts | 45° |
| 2026-05-04 01:09 | 43.69219 | -79.63425 | 569 ft | 13 kts | 8° |
| 2026-05-04 01:09 | 43.69307 | -79.63421 | 565 ft | 13 kts | 2° |
| 2026-05-04 01:10 | 43.69388 | -79.63456 | 569 ft | 12 kts | 319° |
| 2026-05-04 01:10 | 43.69370 | -79.63573 | 563 ft | 20 kts | 226° |
| 2026-05-04 01:10 | 43.69139 | -79.63906 | 568 ft | 81 kts | 226° |
| 2026-05-04 01:10 | 43.68610 | -79.64677 | 567 ft | 137 kts | 226° |
| 2026-05-04 01:11 | 43.67875 | -79.65741 | 857 ft | 156 kts | 228° |
| 2026-05-04 01:11 | 43.67157 | -79.66879 | 1586 ft | 158 kts | 232° |
| 2026-05-04 01:11 | 43.66522 | -79.68108 | 2362 ft | 159 kts | 237° |
| 2026-05-04 01:11 | 43.65853 | -79.69443 | 2706 ft | 182 kts | 238° |
| 2026-05-04 01:12 | 43.65066 | -79.70957 | 3101 ft | 206 kts | 237° |
| 2026-05-04 01:12 | 43.64180 | -79.72641 | 3633 ft | 225 kts | 237° |
| 2026-05-04 01:12 | 43.63238 | -79.74393 | 4520 ft | 229 kts | 237° |
| 2026-05-04 01:12 | 43.62147 | -79.76014 | 5425 ft | 237 kts | 222° |
| 2026-05-04 01:13 | 43.60627 | -79.76973 | 6297 ft | 255 kts | 199° |
| 2026-05-04 01:13 | 43.58761 | -79.76801 | 7054 ft | 283 kts | 167° |
| 2026-05-04 01:13 | 43.57120 | -79.75197 | 7798 ft | 308 kts | 133° |
| 2026-05-04 01:13 | 43.56090 | -79.72561 | 8638 ft | 317 kts | 113° |
| 2026-05-04 01:14 | 43.55416 | -79.69648 | 9522 ft | 320 kts | 105° |
| 2026-05-04 01:14 | 43.54897 | -79.66640 | 10272 ft | 327 kts | 103° |
| 2026-05-04 01:14 | 43.54391 | -79.63455 | 10508 ft | 351 kts | 103° |
| 2026-05-04 01:14 | 43.53833 | -79.60100 | 10954 ft | 365 kts | 104° |
| 2026-05-04 01:15 | 43.53217 | -79.56684 | 11679 ft | 369 kts | 105° |
| 2026-05-04 01:15 | 43.52556 | -79.53255 | 12466 ft | 371 kts | 106° |
| 2026-05-04 01:15 | 43.51859 | -79.49814 | 13242 ft | 374 kts | 106° |
| 2026-05-04 01:15 | 43.51142 | -79.46361 | 13966 ft | 377 kts | 107° |
| 2026-05-04 01:16 | 43.50412 | -79.42878 | 14613 ft | 380 kts | 107° |
| 2026-05-04 01:16 | 43.49674 | -79.39360 | 15237 ft | 384 kts | 107° |
| 2026-05-04 01:16 | 43.48930 | -79.35803 | 15864 ft | 388 kts | 107° |
| 2026-05-04 01:16 | 43.48181 | -79.32216 | 16494 ft | 392 kts | 107° |
| 2026-05-04 01:17 | 43.47427 | -79.28590 | 17106 ft | 396 kts | 107° |
| 2026-05-04 01:17 | 43.46677 | -79.24973 | 17719 ft | 399 kts | 107° |
| 2026-05-04 01:17 | 43.45914 | -79.21285 | 18316 ft | 403 kts | 107° |
| 2026-05-04 01:17 | 43.45141 | -79.17555 | 18833 ft | 407 kts | 106° |
| 2026-05-04 01:18 | 43.44353 | -79.13797 | 19367 ft | 410 kts | 108° |
| 2026-05-04 01:18 | 43.43315 | -79.10131 | 19887 ft | 414 kts | 114° |
| 2026-05-04 01:18 | 43.42176 | -79.06471 | 20420 ft | 417 kts | 114° |
| 2026-05-04 01:18 | 43.41025 | -79.02785 | 20944 ft | 421 kts | 114° |
| 2026-05-04 01:19 | 43.39868 | -78.99073 | 21467 ft | 425 kts | 114° |
| 2026-05-04 01:19 | 43.38701 | -78.95325 | 21996 ft | 428 kts | 114° |
| 2026-05-04 01:19 | 43.37524 | -78.91545 | 22519 ft | 432 kts | 114° |
| 2026-05-04 01:19 | 43.36338 | -78.87740 | 23040 ft | 435 kts | 113° |
| 2026-05-04 01:20 | 43.35140 | -78.83899 | 23525 ft | 439 kts | 113° |
| 2026-05-04 01:20 | 43.33930 | -78.80033 | 23930 ft | 442 kts | 113° |
| 2026-05-04 01:20 | 43.32713 | -78.76148 | 24345 ft | 444 kts | 113° |
| 2026-05-04 01:20 | 43.31488 | -78.72237 | 24754 ft | 447 kts | 113° |
| 2026-05-04 01:21 | 43.30256 | -78.68305 | 25161 ft | 449 kts | 113° |
| 2026-05-04 01:21 | 43.29018 | -78.64360 | 25566 ft | 451 kts | 113° |
| 2026-05-04 01:21 | 43.27772 | -78.60398 | 25956 ft | 453 kts | 113° |
| 2026-05-04 01:21 | 43.26519 | -78.56418 | 26328 ft | 456 kts | 113° |
| 2026-05-04 01:22 | 43.25251 | -78.52412 | 26679 ft | 458 kts | 113° |
| 2026-05-04 01:22 | 43.23976 | -78.48394 | 27056 ft | 460 kts | 113° |
| 2026-05-04 01:22 | 43.22693 | -78.44360 | 27422 ft | 462 kts | 113° |
| 2026-05-04 01:22 | 43.21404 | -78.40308 | 27782 ft | 465 kts | 113° |
| 2026-05-04 01:23 | 43.20107 | -78.36238 | 28123 ft | 467 kts | 114° |
| 2026-05-04 01:23 | 43.18595 | -78.32291 | 28455 ft | 469 kts | 122° |
| 2026-05-04 01:23 | 43.16705 | -78.28697 | 28777 ft | 471 kts | 130° |
| 2026-05-04 01:23 | 43.14621 | -78.25221 | 29097 ft | 473 kts | 130° |
| 2026-05-04 01:24 | 43.12528 | -78.21732 | 29416 ft | 475 kts | 130° |
| 2026-05-04 01:24 | 43.10427 | -78.18230 | 29732 ft | 477 kts | 130° |
| 2026-05-04 01:24 | 43.08315 | -78.14701 | 30017 ft | 479 kts | 130° |
| 2026-05-04 01:24 | 43.06204 | -78.11163 | 30257 ft | 481 kts | 130° |
| 2026-05-04 01:25 | 43.04081 | -78.07614 | 30504 ft | 483 kts | 130° |
| 2026-05-04 01:25 | 43.01946 | -78.04055 | 30738 ft | 485 kts | 130° |
| 2026-05-04 01:25 | 42.99801 | -78.00487 | 30949 ft | 486 kts | 130° |
| 2026-05-04 01:25 | 42.97651 | -77.96912 | 31198 ft | 487 kts | 130° |
| 2026-05-04 01:26 | 42.95524 | -77.93309 | 31493 ft | 488 kts | 127° |
| 2026-05-04 01:26 | 42.93711 | -77.89401 | 31794 ft | 488 kts | 118° |
| 2026-05-04 01:26 | 42.92346 | -77.85168 | 32090 ft | 488 kts | 108° |
| 2026-05-04 01:26 | 42.91465 | -77.80707 | 32391 ft | 486 kts | 99° |
| 2026-05-04 01:27 | 42.91081 | -77.76135 | 32682 ft | 484 kts | 90° |
| 2026-05-04 01:27 | 42.90985 | -77.71598 | 32980 ft | 484 kts | 90° |
| 2026-05-04 01:27 | 42.90879 | -77.67008 | 33285 ft | 484 kts | 90° |
| 2026-05-04 01:27 | 42.90763 | -77.62429 | 33591 ft | 484 kts | 90° |
| 2026-05-04 01:28 | 42.90646 | -77.57846 | 33895 ft | 483 kts | 90° |
| 2026-05-04 01:28 | 42.90531 | -77.53261 | 34127 ft | 484 kts | 90° |
| 2026-05-04 01:28 | 42.90414 | -77.48660 | 34342 ft | 485 kts | 91° |
| 2026-05-04 01:28 | 42.90291 | -77.44061 | 34555 ft | 485 kts | 91° |
| 2026-05-04 01:29 | 42.90164 | -77.39453 | 34762 ft | 486 kts | 91° |
| 2026-05-04 01:29 | 42.90037 | -77.34904 | 34962 ft | 486 kts | 91° |
| 2026-05-04 01:29 | 42.89909 | -77.30292 | 35166 ft | 487 kts | 91° |
| 2026-05-04 01:29 | 42.89780 | -77.25678 | 35357 ft | 487 kts | 91° |
| 2026-05-04 01:30 | 42.89650 | -77.21058 | 35543 ft | 488 kts | 91° |
| 2026-05-04 01:30 | 42.89519 | -77.16428 | 35697 ft | 489 kts | 91° |
| 2026-05-04 01:30 | 42.89385 | -77.11789 | 35874 ft | 490 kts | 91° |
| 2026-05-04 01:30 | 42.89250 | -77.07145 | 36058 ft | 490 kts | 91° |
| 2026-05-04 01:31 | 42.89112 | -77.02499 | 36238 ft | 491 kts | 91° |
| 2026-05-04 01:31 | 42.88970 | -76.97838 | 36453 ft | 490 kts | 91° |
| 2026-05-04 01:31 | 42.88822 | -76.93200 | 36643 ft | 490 kts | 92° |
| 2026-05-04 01:31 | 42.88672 | -76.88550 | 36824 ft | 490 kts | 92° |
| 2026-05-04 01:32 | 42.88520 | -76.83900 | 36904 ft | 490 kts | 92° |
| 2026-05-04 01:32 | 42.88217 | -76.74620 | 36917 ft | 489 kts | 92° |
| 2026-05-04 01:33 | 42.87909 | -76.65359 | 36916 ft | 489 kts | 92° |
| 2026-05-04 01:33 | 42.87591 | -76.56099 | 36923 ft | 489 kts | 92° |
| 2026-05-04 01:34 | 42.87265 | -76.46896 | 36923 ft | 489 kts | 92° |
| 2026-05-04 01:34 | 42.86926 | -76.37638 | 36925 ft | 489 kts | 92° |
| 2026-05-04 01:35 | 42.86577 | -76.28376 | 36915 ft | 489 kts | 92° |
| 2026-05-04 01:35 | 42.86226 | -76.19116 | 36918 ft | 489 kts | 92° |
| 2026-05-04 01:36 | 42.85879 | -76.09852 | 36924 ft | 489 kts | 92° |
| 2026-05-04 01:36 | 42.85521 | -76.00593 | 36930 ft | 489 kts | 93° |
| 2026-05-04 01:37 | 42.85139 | -75.91339 | 36942 ft | 489 kts | 93° |
| 2026-05-04 01:37 | 42.84755 | -75.82072 | 36945 ft | 489 kts | 93° |
| 2026-05-04 01:38 | 42.84374 | -75.72811 | 36946 ft | 489 kts | 93° |
| 2026-05-04 01:38 | 42.83979 | -75.63551 | 36947 ft | 489 kts | 94° |
| 2026-05-04 01:39 | 42.83582 | -75.54355 | 36944 ft | 489 kts | 93° |
| 2026-05-04 01:39 | 42.83175 | -75.45098 | 36945 ft | 490 kts | 94° |
| 2026-05-04 01:40 | 42.82758 | -75.35825 | 36946 ft | 490 kts | 94° |
| 2026-05-04 01:40 | 42.82333 | -75.26554 | 36952 ft | 490 kts | 94° |
| 2026-05-04 01:41 | 42.81901 | -75.17288 | 36956 ft | 490 kts | 94° |
| 2026-05-04 01:41 | 42.81462 | -75.08021 | 36959 ft | 490 kts | 94° |
| 2026-05-04 01:42 | 42.81010 | -74.98752 | 36955 ft | 490 kts | 94° |
| 2026-05-04 01:42 | 42.80558 | -74.89536 | 36951 ft | 491 kts | 94° |
| 2026-05-04 01:43 | 42.80097 | -74.80247 | 36951 ft | 491 kts | 94° |
| 2026-05-04 01:43 | 42.79628 | -74.70970 | 36951 ft | 491 kts | 94° |
| 2026-05-04 01:44 | 42.79149 | -74.61693 | 36958 ft | 491 kts | 94° |
| 2026-05-04 01:44 | 42.78668 | -74.52416 | 36953 ft | 491 kts | 94° |
| 2026-05-04 01:45 | 42.78178 | -74.43147 | 36946 ft | 490 kts | 95° |
| 2026-05-04 01:45 | 42.77422 | -74.29265 | 36938 ft | 490 kts | 95° |
| 2026-05-04 01:46 | 42.76941 | -74.20535 | 36935 ft | 490 kts | 95° |
| 2026-05-04 01:46 | 42.76417 | -74.11278 | 36934 ft | 490 kts | 95° |
| 2026-05-04 01:47 | 42.75887 | -74.02023 | 36933 ft | 490 kts | 95° |
| 2026-05-04 01:47 | 42.75445 | -73.94263 | 36926 ft | 490 kts | 95° |
| 2026-05-04 01:48 | 42.74930 | -73.85350 | 36930 ft | 490 kts | 95° |
| 2026-05-04 01:48 | 42.74498 | -73.76054 | 36933 ft | 491 kts | 92° |
| 2026-05-04 01:49 | 42.74460 | -73.66840 | 36933 ft | 491 kts | 89° |
| 2026-05-04 01:49 | 42.74534 | -73.57558 | 36929 ft | 490 kts | 90° |
| 2026-05-04 01:50 | 42.74509 | -73.48280 | 36838 ft | 490 kts | 91° |
| 2026-05-04 01:50 | 42.74459 | -73.43615 | 35962 ft | 495 kts | 91° |
| 2026-05-04 01:50 | 42.74395 | -73.38929 | 35254 ft | 495 kts | 91° |
| 2026-05-04 01:51 | 42.74332 | -73.34241 | 34456 ft | 496 kts | 90° |
| 2026-05-04 01:51 | 42.74274 | -73.29553 | 33467 ft | 494 kts | 90° |
| 2026-05-04 01:51 | 42.74222 | -73.24902 | 32616 ft | 485 kts | 90° |
| 2026-05-04 01:51 | 42.74173 | -73.20367 | 32059 ft | 477 kts | 90° |
| 2026-05-04 01:52 | 42.74124 | -73.15879 | 31479 ft | 473 kts | 89° |
| 2026-05-04 01:52 | 42.74023 | -73.11424 | 30932 ft | 469 kts | 94° |
| 2026-05-04 01:52 | 42.73580 | -73.07106 | 30405 ft | 465 kts | 98° |
| 2026-05-04 01:52 | 42.73081 | -73.02776 | 29844 ft | 462 kts | 98° |
| 2026-05-04 01:53 | 42.72585 | -72.98482 | 29288 ft | 457 kts | 98° |
| 2026-05-04 01:53 | 42.72095 | -72.94244 | 28795 ft | 451 kts | 98° |
| 2026-05-04 01:53 | 42.71608 | -72.90048 | 28278 ft | 447 kts | 98° |
| 2026-05-04 01:53 | 42.71125 | -72.85901 | 27785 ft | 442 kts | 98° |
| 2026-05-04 01:54 | 42.70644 | -72.81804 | 27300 ft | 437 kts | 98° |
| 2026-05-04 01:54 | 42.70166 | -72.77746 | 26843 ft | 433 kts | 98° |
| 2026-05-04 01:54 | 42.69693 | -72.73719 | 26397 ft | 428 kts | 98° |
| 2026-05-04 01:54 | 42.69225 | -72.69739 | 25936 ft | 424 kts | 97° |
| 2026-05-04 01:55 | 42.68757 | -72.65789 | 25475 ft | 421 kts | 98° |
| 2026-05-04 01:55 | 42.68291 | -72.61872 | 25022 ft | 418 kts | 97° |
| 2026-05-04 01:55 | 42.67824 | -72.57975 | 24560 ft | 416 kts | 98° |
| 2026-05-04 01:55 | 42.67362 | -72.54155 | 24085 ft | 414 kts | 98° |
| 2026-05-04 01:56 | 42.66887 | -72.50300 | 23620 ft | 413 kts | 98° |
| 2026-05-04 01:56 | 42.66414 | -72.46458 | 23086 ft | 411 kts | 97° |
| 2026-05-04 01:56 | 42.65946 | -72.42643 | 22610 ft | 408 kts | 97° |
| 2026-05-04 01:56 | 42.65478 | -72.38860 | 22125 ft | 405 kts | 97° |
| 2026-05-04 01:57 | 42.65013 | -72.35102 | 21658 ft | 402 kts | 97° |
| 2026-05-04 01:57 | 42.64553 | -72.31364 | 21173 ft | 400 kts | 97° |
| 2026-05-04 01:57 | 42.64110 | -72.27646 | 20699 ft | 397 kts | 96° |
| 2026-05-04 01:57 | 42.63683 | -72.23948 | 20231 ft | 395 kts | 96° |
| 2026-05-04 01:58 | 42.63261 | -72.20266 | 19758 ft | 394 kts | 96° |
| 2026-05-04 01:58 | 42.62839 | -72.16589 | 19265 ft | 393 kts | 96° |
| 2026-05-04 01:58 | 42.62419 | -72.12932 | 18801 ft | 392 kts | 96° |
| 2026-05-04 01:58 | 42.61993 | -72.09280 | 18331 ft | 391 kts | 96° |
| 2026-05-04 01:59 | 42.61565 | -72.05643 | 17835 ft | 390 kts | 96° |
| 2026-05-04 01:59 | 42.61135 | -72.02017 | 17375 ft | 387 kts | 96° |
| 2026-05-04 01:59 | 42.60695 | -71.98421 | 16926 ft | 385 kts | 96° |
| 2026-05-04 01:59 | 42.60249 | -71.94848 | 16469 ft | 383 kts | 96° |
| 2026-05-04 02:00 | 42.59802 | -71.91293 | 16032 ft | 381 kts | 96° |
| 2026-05-04 02:00 | 42.59358 | -71.87797 | 15598 ft | 380 kts | 96° |
| 2026-05-04 02:00 | 42.58910 | -71.84274 | 15161 ft | 378 kts | 96° |
| 2026-05-04 02:00 | 42.58460 | -71.80770 | 14723 ft | 376 kts | 97° |
| 2026-05-04 02:01 | 42.57959 | -71.77293 | 14279 ft | 375 kts | 98° |
| 2026-05-04 02:01 | 42.57410 | -71.73817 | 13935 ft | 371 kts | 99° |
| 2026-05-04 02:01 | 42.56854 | -71.70443 | 13802 ft | 361 kts | 99° |
| 2026-05-04 02:01 | 42.56306 | -71.67148 | 13425 ft | 358 kts | 99° |
| 2026-05-04 02:02 | 42.55764 | -71.63857 | 12998 ft | 356 kts | 99° |
| 2026-05-04 02:02 | 42.55234 | -71.60575 | 12568 ft | 355 kts | 99° |
| 2026-05-04 02:02 | 42.54696 | -71.57363 | 12144 ft | 354 kts | 101° |
| 2026-05-04 02:02 | 42.54071 | -71.54137 | 11767 ft | 352 kts | 103° |
| 2026-05-04 02:03 | 42.53405 | -71.50965 | 11266 ft | 347 kts | 104° |
| 2026-05-04 02:03 | 42.52730 | -71.47838 | 10787 ft | 344 kts | 104° |
| 2026-05-04 02:03 | 42.52057 | -71.44735 | 10465 ft | 342 kts | 104° |
| 2026-05-04 02:03 | 42.51395 | -71.41660 | 10142 ft | 335 kts | 104° |
| 2026-05-04 02:04 | 42.50755 | -71.38649 | 9795 ft | 330 kts | 104° |
| 2026-05-04 02:04 | 42.50131 | -71.35678 | 9661 ft | 327 kts | 104° |
| 2026-05-04 02:04 | 42.49527 | -71.32713 | 9524 ft | 326 kts | 103° |
| 2026-05-04 02:04 | 42.48939 | -71.29757 | 9284 ft | 324 kts | 103° |
| 2026-05-04 02:05 | 42.48360 | -71.26821 | 8994 ft | 321 kts | 103° |
| 2026-05-04 02:05 | 42.47782 | -71.23904 | 8723 ft | 319 kts | 103° |
| 2026-05-04 02:05 | 42.47208 | -71.21007 | 8429 ft | 317 kts | 103° |
| 2026-05-04 02:05 | 42.46635 | -71.18130 | 8139 ft | 315 kts | 103° |
| 2026-05-04 02:06 | 42.46106 | -71.15264 | 7851 ft | 312 kts | 97° |
| 2026-05-04 02:06 | 42.45836 | -71.12365 | 7579 ft | 309 kts | 94° |
| 2026-05-04 02:06 | 42.45581 | -71.09491 | 7295 ft | 305 kts | 94° |
| 2026-05-04 02:06 | 42.45323 | -71.06695 | 7161 ft | 293 kts | 95° |
| 2026-05-04 02:07 | 42.45072 | -71.04003 | 7032 ft | 282 kts | 95° |
| 2026-05-04 02:07 | 42.44819 | -71.01411 | 6805 ft | 275 kts | 96° |
| 2026-05-04 02:07 | 42.44512 | -70.98887 | 6629 ft | 270 kts | 97° |
| 2026-05-04 02:07 | 42.44270 | -70.96403 | 6512 ft | 268 kts | 88° |
| 2026-05-04 02:08 | 42.44445 | -70.93919 | 6387 ft | 263 kts | 74° |
| 2026-05-04 02:08 | 42.44813 | -70.91497 | 6258 ft | 262 kts | 73° |
| 2026-05-04 02:08 | 42.45183 | -70.89084 | 6127 ft | 261 kts | 73° |
| 2026-05-04 02:08 | 42.45549 | -70.86720 | 6018 ft | 252 kts | 72° |
| 2026-05-04 02:09 | 42.45925 | -70.84314 | 6061 ft | 279 kts | 73° |
| 2026-05-04 02:09 | 42.46345 | -70.81696 | 6070 ft | 281 kts | 73° |
| 2026-05-04 02:09 | 42.46742 | -70.79197 | 6086 ft | 262 kts | 73° |
| 2026-05-04 02:09 | 42.47113 | -70.76824 | 6119 ft | 258 kts | 73° |
| 2026-05-04 02:10 | 42.47482 | -70.74447 | 6144 ft | 255 kts | 73° |
| 2026-05-04 02:10 | 42.47846 | -70.72104 | 6168 ft | 254 kts | 73° |
| 2026-05-04 02:10 | 42.48209 | -70.69765 | 6193 ft | 254 kts | 73° |
| 2026-05-04 02:10 | 42.48573 | -70.67424 | 6219 ft | 254 kts | 73° |
| 2026-05-04 02:11 | 42.48937 | -70.65078 | 6242 ft | 254 kts | 73° |
| 2026-05-04 02:11 | 42.49301 | -70.62736 | 6267 ft | 254 kts | 73° |
| 2026-05-04 02:11 | 42.49667 | -70.60384 | 6189 ft | 255 kts | 73° |
| 2026-05-04 02:11 | 42.50030 | -70.58042 | 6062 ft | 254 kts | 73° |
| 2026-05-04 02:12 | 42.50394 | -70.55709 | 5927 ft | 252 kts | 73° |
| 2026-05-04 02:12 | 42.50749 | -70.53386 | 5791 ft | 252 kts | 76° |
| 2026-05-04 02:12 | 42.50578 | -70.51063 | 5649 ft | 254 kts | 113° |
| 2026-05-04 02:12 | 42.49516 | -70.49260 | 5518 ft | 241 kts | 150° |
| 2026-05-04 02:13 | 42.48016 | -70.48490 | 5387 ft | 225 kts | 184° |
| 2026-05-04 02:13 | 42.46537 | -70.48772 | 5258 ft | 208 kts | 213° |
| 2026-05-04 02:13 | 42.45403 | -70.49839 | 5142 ft | 193 kts | 238° |
| 2026-05-04 02:13 | 42.44689 | -70.51317 | 5061 ft | 186 kts | 249° |
| 2026-05-04 02:14 | 42.44157 | -70.52884 | 5008 ft | 181 kts | 258° |
| 2026-05-04 02:14 | 42.43788 | -70.54507 | 5012 ft | 180 kts | 261° |
| 2026-05-04 02:14 | 42.43476 | -70.56158 | 5017 ft | 181 kts | 262° |
| 2026-05-04 02:14 | 42.43181 | -70.57820 | 5015 ft | 182 kts | 262° |
| 2026-05-04 02:15 | 42.42890 | -70.59486 | 5017 ft | 182 kts | 262° |
| 2026-05-04 02:15 | 42.42605 | -70.61130 | 5018 ft | 182 kts | 262° |
| 2026-05-04 02:15 | 42.42313 | -70.62814 | 5018 ft | 181 kts | 262° |
| 2026-05-04 02:15 | 42.42030 | -70.64449 | 5019 ft | 181 kts | 262° |
| 2026-05-04 02:16 | 42.41742 | -70.66104 | 4948 ft | 178 kts | 262° |
| 2026-05-04 02:16 | 42.41465 | -70.67696 | 4745 ft | 170 kts | 262° |
| 2026-05-04 02:16 | 42.41196 | -70.69242 | 4518 ft | 168 kts | 262° |
| 2026-05-04 02:16 | 42.40929 | -70.70779 | 4298 ft | 168 kts | 262° |
| 2026-05-04 02:17 | 42.40662 | -70.72316 | 4064 ft | 168 kts | 262° |
| 2026-05-04 02:17 | 42.40394 | -70.73854 | 3834 ft | 168 kts | 262° |
| 2026-05-04 02:17 | 42.40125 | -70.75397 | 3604 ft | 168 kts | 262° |
| 2026-05-04 02:17 | 42.39856 | -70.76940 | 3375 ft | 168 kts | 262° |
| 2026-05-04 02:18 | 42.39586 | -70.78483 | 3148 ft | 168 kts | 262° |
| 2026-05-04 02:18 | 42.39316 | -70.80027 | 2903 ft | 169 kts | 262° |
| 2026-05-04 02:18 | 42.39045 | -70.81576 | 2669 ft | 169 kts | 260° |
| 2026-05-04 02:18 | 42.38773 | -70.83129 | 2440 ft | 169 kts | 260° |
| 2026-05-04 02:19 | 42.38502 | -70.84677 | 2209 ft | 168 kts | 260° |
| 2026-05-04 02:19 | 42.38244 | -70.86143 | 1978 ft | 155 kts | 260° |
| 2026-05-04 02:19 | 42.38002 | -70.87515 | 1790 ft | 140 kts | 260° |
| 2026-05-04 02:19 | 42.37788 | -70.88734 | 1595 ft | 132 kts | 259° |
| 2026-05-04 02:20 | 42.37578 | -70.89929 | 1418 ft | 129 kts | 259° |
| 2026-05-04 02:20 | 42.37370 | -70.91120 | 1240 ft | 131 kts | 258° |
| 2026-05-04 02:20 | 42.37160 | -70.92314 | 1052 ft | 130 kts | 258° |
| 2026-05-04 02:20 | 42.36959 | -70.93501 | 865 ft | 130 kts | 259° |
| 2026-05-04 02:21 | 42.36760 | -70.94704 | 725 ft | 132 kts | 258° |
| 2026-05-04 02:21 | 42.36524 | -70.95928 | 508 ft | 136 kts | 256° |
| 2026-05-04 02:21 | 42.36300 | -70.97168 | 315 ft | 136 kts | 257° |
| 2026-05-04 02:21 | 42.36087 | -70.98415 | 122 ft | 136 kts | 256° |
| 2026-05-04 02:22 | 42.35872 | -70.99610 | 28 ft | 118 kts | 257° |
| 2026-05-04 02:22 | 42.35730 | -71.00431 | 26 ft | 69 kts | 256° |
| 2026-05-04 02:22 | 42.35648 | -71.00892 | 25 ft | 31 kts | 257° |
| 2026-05-04 02:22 | 42.35643 | -71.01120 | 28 ft | 21 kts | 299° |
| 2026-05-04 02:23 | 42.35729 | -71.01277 | 26 ft | 22 kts | 302° |
| 2026-05-04 02:23 | 42.35784 | -71.01469 | 28 ft | 22 kts | 290° |
| 2026-05-04 02:23 | 42.35831 | -71.01676 | 25 ft | 22 kts | 281° |
| 2026-05-04 02:23 | 42.35862 | -71.01868 | 30 ft | 22 kts | 292° |
| 2026-05-04 02:24 | 42.35941 | -71.02051 | 28 ft | 23 kts | 301° |
| 2026-05-04 02:24 | 42.36023 | -71.02241 | 26 ft | 21 kts | 300° |
| 2026-05-04 02:24 | 42.36120 | -71.02316 | 30 ft | 13 kts | 20° |
| 2026-05-04 02:24 | 42.36194 | -71.02273 | 25 ft | 8 kts | 23° |
| 2026-05-04 02:25 | 42.36218 | -71.02259 | 27 ft | 0 kts | 23° |
| 2026-05-04 02:26 | 42.36223 | -71.02256 | 28 ft | 2 kts | 23° |
| 2026-05-04 02:26 | 42.36232 | -71.02251 | 25 ft | 1 kts | 23° |
| 2026-05-04 02:26 | 42.36249 | -71.02237 | 26 ft | 3 kts | 39° |
| 2026-05-04 02:26 | 42.36259 | -71.02216 | 25 ft | 2 kts | 61° |
| 2026-05-04 02:27 | 42.36269 | -71.02181 | 29 ft | 6 kts | 71° |
| 2026-05-04 02:27 | 42.36282 | -71.02131 | 28 ft | 5 kts | 73° |
| 2026-05-04 02:27 | 42.36274 | -71.02098 | 29 ft | 3 kts | 155° |
| 2026-05-04 02:27 | 42.36257 | -71.02096 | 28 ft | 2 kts | 177° |
| 2026-05-04 02:28 | 42.36245 | -71.02096 | 27 ft | 1 kts | 178° |
| 2026-05-04 02:28 | 42.36238 | -71.02095 | 28 ft | 1 kts | 177° |
| 2026-05-04 02:28 | 42.36228 | -71.02095 | 28 ft | 1 kts | 177° |
| 2026-05-04 02:28 | 42.36223 | -71.02094 | 28 ft | 0 kts | 177° |
| 2026-05-04 02:29 | 42.36222 | -71.02094 | 28 ft | 0 kts | 177° |
| 2026-05-04 02:37 | 42.36264 | -71.01979 | 31 ft | 0 kts | 116° |